sensor_id;sensor_type;location;lat;lon;timestamp;pressure;altitude;pressure_sealevel;temperature;humidity
18014;BME280;9132;47.946;10.394;2024-03-25T00:00:19;93347.34;;;1.75;100.00
18014;BME280;9132;47.946;10.394;2024-03-25T00:02:46;93347.19;;;1.68;100.00
18014;BME280;9132;47.946;10.394;2024-03-25T00:05:12;93347.31;;;1.67;100.00
18014;BME280;9132;47.946;10.394;2024-03-25T00:07:40;93360.81;;;1.62;100.00
18014;BME280;9132;47.946;10.394;2024-03-25T00:10:07;93353.47;;;1.57;100.00
18014;BME280;9132;47.946;10.394;2024-03-25T00:12:33;93344.22;;;1.55;100.00
18014;BME280;9132;47.946;10.394;2024-03-25T00:15:00;93337.56;;;1.52;100.00
18014;BME280;9132;47.946;10.394;2024-03-25T00:17:27;93342.91;;;1.51;100.00
18014;BME280;9132;47.946;10.394;2024-03-25T00:19:53;93335.41;;;1.48;100.00
18014;BME280;9132;47.946;10.394;2024-03-25T00:22:19;93346.13;;;1.45;100.00
18014;BME280;9132;47.946;10.394;2024-03-25T00:24:47;93342.91;;;1.43;100.00
18014;BME280;9132;47.946;10.394;2024-03-25T00:27:13;93345.00;;;1.47;100.00
18014;BME280;9132;47.946;10.394;2024-03-25T00:29:39;93351.69;;;1.50;100.00
18014;BME280;9132;47.946;10.394;2024-03-25T00:32:05;93361.91;;;1.51;100.00
18014;BME280;9132;47.946;10.394;2024-03-25T00:34:33;93343.88;;;1.50;100.00
18014;BME280;9132;47.946;10.394;2024-03-25T00:36:59;93356.06;;;1.49;100.00
18014;BME280;9132;47.946;10.394;2024-03-25T00:39:26;93341.13;;;1.51;100.00
18014;BME280;9132;47.946;10.394;2024-03-25T00:41:52;93351.84;;;1.48;100.00
18014;BME280;9132;47.946;10.394;2024-03-25T00:44:19;93339.00;;;1.47;100.00
18014;BME280;9132;47.946;10.394;2024-03-25T00:46:45;93332.50;;;1.43;100.00
18014;BME280;9132;47.946;10.394;2024-03-25T00:49:12;93333.31;;;1.43;100.00
18014;BME280;9132;47.946;10.394;2024-03-25T00:51:39;93334.28;;;1.42;100.00
18014;BME280;9132;47.946;10.394;2024-03-25T00:54:05;93339.94;;;1.37;100.00
18014;BME280;9132;47.946;10.394;2024-03-25T00:56:31;93334.75;;;1.37;100.00
18014;BME280;9132;47.946;10.394;2024-03-25T00:58:57;93332.97;;;1.38;100.00
18014;BME280;9132;47.946;10.394;2024-03-25T01:01:27;93332.47;;;1.34;100.00
18014;BME280;9132;47.946;10.394;2024-03-25T01:03:54;93324.00;;;1.32;100.00
18014;BME280;9132;47.946;10.394;2024-03-25T01:06:20;93331.97;;;1.31;100.00
18014;BME280;9132;47.946;10.394;2024-03-25T01:08:47;93328.56;;;1.30;100.00
18014;BME280;9132;47.946;10.394;2024-03-25T01:11:13;93333.75;;;1.30;100.00
18014;BME280;9132;47.946;10.394;2024-03-25T01:13:40;93339.78;;;1.31;100.00
18014;BME280;9132;47.946;10.394;2024-03-25T01:16:06;93333.75;;;1.30;100.00
18014;BME280;9132;47.946;10.394;2024-03-25T01:18:33;93327.44;;;1.33;100.00
18014;BME280;9132;47.946;10.394;2024-03-25T01:20:59;93328.41;;;1.32;100.00
18014;BME280;9132;47.946;10.394;2024-03-25T01:23:25;93321.59;;;1.31;100.00
18014;BME280;9132;47.946;10.394;2024-03-25T01:25:52;93321.59;;;1.31;100.00
18014;BME280;9132;47.946;10.394;2024-03-25T01:28:19;93328.41;;;1.32;100.00
18014;BME280;9132;47.946;10.394;2024-03-25T01:30:45;93320.59;;;1.32;100.00
18014;BME280;9132;47.946;10.394;2024-03-25T01:33:11;93319.16;;;1.29;100.00
18014;BME280;9132;47.946;10.394;2024-03-25T01:35:37;93325.16;;;1.30;100.00
18014;BME280;9132;47.946;10.394;2024-03-25T01:38:03;93305.97;;;1.23;100.00
18014;BME280;9132;47.946;10.394;2024-03-25T01:40:29;93313.44;;;1.26;100.00
18014;BME280;9132;47.946;10.394;2024-03-25T01:42:57;93318.00;;;1.24;100.00
18014;BME280;9132;47.946;10.394;2024-03-25T01:45:23;93325.94;;;1.22;100.00
18014;BME280;9132;47.946;10.394;2024-03-25T01:47:49;93321.72;;;1.21;100.00
18014;BME280;9132;47.946;10.394;2024-03-25T01:50:16;93307.59;;;1.24;100.00
18014;BME280;9132;47.946;10.394;2024-03-25T01:52:42;93333.91;;;1.29;100.00
18014;BME280;9132;47.946;10.394;2024-03-25T01:55:18;93315.09;;;1.27;100.00
18014;BME280;9132;47.946;10.394;2024-03-25T01:57:46;93305.81;;;1.32;100.00
18014;BME280;9132;47.946;10.394;2024-03-25T02:00:15;93321.09;;;1.35;100.00
18014;BME280;9132;47.946;10.394;2024-03-25T02:02:42;93315.56;;;1.38;100.00
18014;BME280;9132;47.946;10.394;2024-03-25T02:05:10;93326.19;;;1.45;100.00
18014;BME280;9132;47.946;10.394;2024-03-25T02:07:36;93308.94;;;1.44;100.00
18014;BME280;9132;47.946;10.394;2024-03-25T02:10:03;93318.22;;;1.47;100.00
18014;BME280;9132;47.946;10.394;2024-03-25T02:12:29;93315.47;;;1.48;100.00
18014;BME280;9132;47.946;10.394;2024-03-25T02:14:56;93315.78;;;1.45;100.00
18014;BME280;9132;47.946;10.394;2024-03-25T02:17:24;93315.94;;;1.44;100.00
18014;BME280;9132;47.946;10.394;2024-03-25T02:19:51;93317.06;;;1.41;100.00
18014;BME280;9132;47.946;10.394;2024-03-25T02:22:16;93308.44;;;1.41;100.00
18014;BME280;9132;47.946;10.394;2024-03-25T02:24:44;93305.19;;;1.38;100.00
18014;BME280;9132;47.946;10.394;2024-03-25T02:27:12;93315.09;;;1.35;100.00
18014;BME280;9132;47.946;10.394;2024-03-25T02:29:40;93312.66;;;1.33;100.00
18014;BME280;9132;47.946;10.394;2024-03-25T02:32:06;93298.50;;;1.28;100.00
18014;BME280;9132;47.946;10.394;2024-03-25T02:34:35;93305.34;;;1.37;100.00
18014;BME280;9132;47.946;10.394;2024-03-25T02:37:01;93311.22;;;1.39;100.00
18014;BME280;9132;47.946;10.394;2024-03-25T02:39:28;93324.72;;;1.43;100.00
18014;BME280;9132;47.946;10.394;2024-03-25T02:41:54;93315.13;;;1.43;100.00
18014;BME280;9132;47.946;10.394;2024-03-25T02:44:22;93317.41;;;1.46;100.00
18014;BME280;9132;47.946;10.394;2024-03-25T02:46:48;93308.94;;;1.44;100.00
18014;BME280;9132;47.946;10.394;2024-03-25T02:49:15;93310.59;;;1.45;100.00
18014;BME280;9132;47.946;10.394;2024-03-25T02:51:40;93306.69;;;1.49;100.00
18014;BME280;9132;47.946;10.394;2024-03-25T02:54:07;93307.81;;;1.47;100.00
18014;BME280;9132;47.946;10.394;2024-03-25T02:56:34;93301.94;;;1.45;100.00
18014;BME280;9132;47.946;10.394;2024-03-25T02:59:00;93302.78;;;1.45;100.00
18014;BME280;9132;47.946;10.394;2024-03-25T03:01:27;93296.13;;;1.43;100.00
18014;BME280;9132;47.946;10.394;2024-03-25T03:03:54;93293.66;;;1.41;100.00
18014;BME280;9132;47.946;10.394;2024-03-25T03:06:19;93305.03;;;1.40;100.00
18014;BME280;9132;47.946;10.394;2024-03-25T03:08:46;93315.75;;;1.37;100.00
18014;BME280;9132;47.946;10.394;2024-03-25T03:11:11;93308.28;;;1.34;100.00
18014;BME280;9132;47.946;10.394;2024-03-25T03:13:38;93297.88;;;1.34;100.00
18014;BME280;9132;47.946;10.394;2024-03-25T03:16:04;93301.59;;;1.31;100.00
18014;BME280;9132;47.946;10.394;2024-03-25T03:18:32;93306.81;;;1.31;100.00
18014;BME280;9132;47.946;10.394;2024-03-25T03:20:57;93304.19;;;1.31;100.00
18014;BME280;9132;47.946;10.394;2024-03-25T03:23:24;93300.97;;;1.29;100.00
18014;BME280;9132;47.946;10.394;2024-03-25T03:25:49;93309.72;;;1.28;100.00
18014;BME280;9132;47.946;10.394;2024-03-25T03:28:17;93305.81;;;1.32;100.00
18014;BME280;9132;47.946;10.394;2024-03-25T03:30:43;93301.28;;;1.34;100.00
18014;BME280;9132;47.946;10.394;2024-03-25T03:33:09;93306.66;;;1.41;100.00
18014;BME280;9132;47.946;10.394;2024-03-25T03:35:36;93303.75;;;1.44;100.00
18014;BME280;9132;47.946;10.394;2024-03-25T03:38:03;93296.59;;;1.46;100.00
18014;BME280;9132;47.946;10.394;2024-03-25T03:40:29;93298.72;;;1.51;100.00
18014;BME280;9132;47.946;10.394;2024-03-25T03:42:56;93295.31;;;1.50;100.00
18014;BME280;9132;47.946;10.394;2024-03-25T03:45:23;93297.75;;;1.52;100.00
18014;BME280;9132;47.946;10.394;2024-03-25T03:47:50;93290.78;;;1.52;100.00
18014;BME280;9132;47.946;10.394;2024-03-25T03:50:15;93295.31;;;1.50;100.00
18014;BME280;9132;47.946;10.394;2024-03-25T03:52:43;93288.19;;;1.52;100.00
18014;BME280;9132;47.946;10.394;2024-03-25T03:55:09;93293.19;;;1.54;100.00
18014;BME280;9132;47.946;10.394;2024-03-25T03:57:35;93300.03;;;1.55;100.00
18014;BME280;9132;47.946;10.394;2024-03-25T04:00:02;93293.38;;;1.52;100.00
18014;BME280;9132;47.946;10.394;2024-03-25T04:02:29;93291.22;;;1.48;100.00
18014;BME280;9132;47.946;10.394;2024-03-25T04:04:55;93291.88;;;1.42;100.00
18014;BME280;9132;47.946;10.394;2024-03-25T04:07:22;93300.00;;;1.38;100.00
18014;BME280;9132;47.946;10.394;2024-03-25T04:09:53;93290.22;;;1.32;100.00
18014;BME280;9132;47.946;10.394;2024-03-25T04:12:19;93298.03;;;1.32;100.00
18014;BME280;9132;47.946;10.394;2024-03-25T04:14:46;93299.66;;;1.33;100.00
18014;BME280;9132;47.946;10.394;2024-03-25T04:17:14;93296.59;;;1.30;100.00
18014;BME280;9132;47.946;10.394;2024-03-25T04:19:40;93300.31;;;1.27;100.00
18014;BME280;9132;47.946;10.394;2024-03-25T04:22:06;93297.84;;;1.26;100.00
18014;BME280;9132;47.946;10.394;2024-03-25T04:24:32;93301.59;;;1.23;100.00
18014;BME280;9132;47.946;10.394;2024-03-25T04:27:01;93306.63;;;1.25;100.00
18014;BME280;9132;47.946;10.394;2024-03-25T04:29:26;93304.69;;;1.27;100.00
18014;BME280;9132;47.946;10.394;2024-03-25T04:31:54;93303.88;;;1.26;100.00
18014;BME280;9132;47.946;10.394;2024-03-25T04:34:20;93301.44;;;1.25;100.00
18014;BME280;9132;47.946;10.394;2024-03-25T04:36:48;93303.53;;;1.21;100.00
18014;BME280;9132;47.946;10.394;2024-03-25T04:39:14;93299.94;;;1.22;100.00
18014;BME280;9132;47.946;10.394;2024-03-25T04:41:39;93309.84;;;1.19;100.00
18014;BME280;9132;47.946;10.394;2024-03-25T04:44:06;93310.03;;;1.17;100.00
18014;BME280;9132;47.946;10.394;2024-03-25T04:46:32;93307.44;;;1.17;100.00
18014;BME280;9132;47.946;10.394;2024-03-25T04:48:57;93312.94;;;1.22;100.00
18014;BME280;9132;47.946;10.394;2024-03-25T04:51:23;93310.19;;;1.24;100.00
18014;BME280;9132;47.946;10.394;2024-03-25T04:53:49;93318.50;;;1.27;100.00
18014;BME280;9132;47.946;10.394;2024-03-25T04:56:15;93305.19;;;1.30;100.00
18014;BME280;9132;47.946;10.394;2024-03-25T04:58:40;93306.66;;;1.33;100.00
18014;BME280;9132;47.946;10.394;2024-03-25T05:01:07;93314.28;;;1.34;100.00
18014;BME280;9132;47.946;10.394;2024-03-25T05:03:33;93312.34;;;1.36;100.00
18014;BME280;9132;47.946;10.394;2024-03-25T05:05:58;93305.81;;;1.32;100.00
18014;BME280;9132;47.946;10.394;2024-03-25T05:08:24;93304.50;;;1.28;100.00
18014;BME280;9132;47.946;10.394;2024-03-25T05:10:50;93314.09;;;1.28;100.00
18014;BME280;9132;47.946;10.394;2024-03-25T05:13:15;93306.97;;;1.30;100.00
18014;BME280;9132;47.946;10.394;2024-03-25T05:15:49;93307.28;;;1.27;100.00
18014;BME280;9132;47.946;10.394;2024-03-25T05:18:16;93307.59;;;1.24;100.00
18014;BME280;9132;47.946;10.394;2024-03-25T05:20:42;93307.13;;;1.20;100.00
18014;BME280;9132;47.946;10.394;2024-03-25T05:23:07;93310.66;;;1.19;100.00
18014;BME280;9132;47.946;10.394;2024-03-25T05:25:34;93308.06;;;1.19;100.00
18014;BME280;9132;47.946;10.394;2024-03-25T05:28:00;93317.81;;;1.17;100.00
18014;BME280;9132;47.946;10.394;2024-03-25T05:30:25;93317.66;;;1.19;100.00
18014;BME280;9132;47.946;10.394;2024-03-25T05:32:51;93315.84;;;1.19;100.00
18014;BME280;9132;47.946;10.394;2024-03-25T05:35:18;93325.28;;;1.20;100.00
18014;BME280;9132;47.946;10.394;2024-03-25T05:37:43;93320.91;;;1.21;100.00
18014;BME280;9132;47.946;10.394;2024-03-25T05:40:10;93319.94;;;1.22;100.00
18014;BME280;9132;47.946;10.394;2024-03-25T05:42:36;93324.13;;;1.23;100.00
18014;BME280;9132;47.946;10.394;2024-03-25T05:45:02;93318.94;;;1.23;100.00
18014;BME280;9132;47.946;10.394;2024-03-25T05:47:27;93326.75;;;1.23;100.00
18014;BME280;9132;47.946;10.394;2024-03-25T05:49:53;93323.19;;;1.24;100.00
18014;BME280;9132;47.946;10.394;2024-03-25T05:52:20;93329.19;;;1.24;100.00
18014;BME280;9132;47.946;10.394;2024-03-25T05:54:46;93327.25;;;1.26;100.00
18014;BME280;9132;47.946;10.394;2024-03-25T05:57:11;93323.50;;;1.29;100.00
18014;BME280;9132;47.946;10.394;2024-03-25T05:59:37;93326.28;;;1.27;100.00
18014;BME280;9132;47.946;10.394;2024-03-25T06:02:03;93321.75;;;1.29;100.00
18014;BME280;9132;47.946;10.394;2024-03-25T06:04:28;93315.41;;;1.32;100.00
18014;BME280;9132;47.946;10.394;2024-03-25T06:06:54;93325.47;;;1.35;100.00
18014;BME280;9132;47.946;10.394;2024-03-25T06:09:21;93318.34;;;1.37;100.00
18014;BME280;9132;47.946;10.394;2024-03-25T06:11:46;93311.84;;;1.41;100.00
18014;BME280;9132;47.946;10.394;2024-03-25T06:14:12;93319.50;;;1.43;100.00
18014;BME280;9132;47.946;10.394;2024-03-25T06:16:38;93317.41;;;1.46;100.00
18014;BME280;9132;47.946;10.394;2024-03-25T06:19:03;93321.31;;;1.50;100.00
18014;BME280;9132;47.946;10.394;2024-03-25T06:21:29;93311.41;;;1.54;100.00
18014;BME280;9132;47.946;10.394;2024-03-25T06:23:54;93319.53;;;1.59;100.00
18014;BME280;9132;47.946;10.394;2024-03-25T06:26:21;93320.19;;;1.61;100.00
18014;BME280;9132;47.946;10.394;2024-03-25T06:28:47;93317.78;;;1.68;100.00
18014;BME280;9132;47.946;10.394;2024-03-25T06:31:13;93316.94;;;1.75;100.00
18014;BME280;9132;47.946;10.394;2024-03-25T06:33:57;93315.19;;;1.84;100.00
18014;BME280;9132;47.946;10.394;2024-03-25T06:36:40;93306.88;;;1.89;100.00
18014;BME280;9132;47.946;10.394;2024-03-25T06:39:06;93305.28;;;1.96;100.00
18014;BME280;9132;47.946;10.394;2024-03-25T06:41:33;93308.69;;;1.96;100.00
18014;BME280;9132;47.946;10.394;2024-03-25T06:43:58;93303.66;;;2.03;100.00
18014;BME280;9132;47.946;10.394;2024-03-25T06:46:24;93308.81;;;2.11;100.00
18014;BME280;9132;47.946;10.394;2024-03-25T06:48:50;93311.09;;;2.14;100.00
18014;BME280;9132;47.946;10.394;2024-03-25T06:51:15;93314.22;;;2.18;100.00
18014;BME280;9132;47.946;10.394;2024-03-25T06:53:41;93311.91;;;2.23;100.00
18014;BME280;9132;47.946;10.394;2024-03-25T06:56:07;93306.88;;;2.29;100.00
18014;BME280;9132;47.946;10.394;2024-03-25T06:58:34;93311.91;;;2.39;100.00
18014;BME280;9132;47.946;10.394;2024-03-25T07:01:04;93319.84;;;2.46;100.00
18014;BME280;9132;47.946;10.394;2024-03-25T07:03:31;93314.81;;;2.52;100.00
18014;BME280;9132;47.946;10.394;2024-03-25T07:05:57;93317.09;;;2.55;100.00
18014;BME280;9132;47.946;10.394;2024-03-25T07:08:22;93310.72;;;2.58;100.00
18014;BME280;9132;47.946;10.394;2024-03-25T07:10:48;93308.63;;;2.62;100.00
18014;BME280;9132;47.946;10.394;2024-03-25T07:13:14;93311.19;;;2.70;100.00
18014;BME280;9132;47.946;10.394;2024-03-25T07:15:42;93305.00;;;2.79;100.00
18014;BME280;9132;47.946;10.394;2024-03-25T07:18:08;93302.03;;;2.82;100.00
18014;BME280;9132;47.946;10.394;2024-03-25T07:20:34;93303.13;;;2.96;100.00
18014;BME280;9132;47.946;10.394;2024-03-25T07:22:59;93302.31;;;3.04;100.00
18014;BME280;9132;47.946;10.394;2024-03-25T07:25:25;93303.09;;;3.12;100.00
18014;BME280;9132;47.946;10.394;2024-03-25T07:27:51;93303.50;;;3.24;100.00
18014;BME280;9132;47.946;10.394;2024-03-25T07:30:17;93306.44;;;3.29;100.00
18014;BME280;9132;47.946;10.394;2024-03-25T07:32:44;93307.34;;;3.36;100.00
18014;BME280;9132;47.946;10.394;2024-03-25T07:35:10;93311.09;;;3.42;100.00
18014;BME280;9132;47.946;10.394;2024-03-25T07:37:35;93298.97;;;3.49;100.00
18014;BME280;9132;47.946;10.394;2024-03-25T07:40:01;93299.56;;;3.59;100.00
18014;BME280;9132;47.946;10.394;2024-03-25T07:42:27;93299.88;;;3.64;100.00
18014;BME280;9132;47.946;10.394;2024-03-25T07:44:52;93302.44;;;3.72;100.00
18014;BME280;9132;47.946;10.394;2024-03-25T07:47:18;93297.16;;;3.81;100.00
18014;BME280;9132;47.946;10.394;2024-03-25T07:49:45;93294.03;;;3.85;100.00
18014;BME280;9132;47.946;10.394;2024-03-25T07:52:10;93299.53;;;3.90;100.00
18014;BME280;9132;47.946;10.394;2024-03-25T07:54:36;93299.19;;;3.93;100.00
18014;BME280;9132;47.946;10.394;2024-03-25T07:57:02;93295.19;;;4.06;100.00
18014;BME280;9132;47.946;10.394;2024-03-25T07:59:28;93300.50;;;4.12;100.00
18014;BME280;9132;47.946;10.394;2024-03-25T08:01:54;93294.88;;;4.24;100.00
18014;BME280;9132;47.946;10.394;2024-03-25T08:04:19;93306.31;;;4.23;100.00
18014;BME280;9132;47.946;10.394;2024-03-25T08:06:46;93297.78;;;4.29;100.00
18014;BME280;9132;47.946;10.394;2024-03-25T08:09:12;93297.03;;;4.35;100.00
18014;BME280;9132;47.946;10.394;2024-03-25T08:11:38;93302.41;;;4.41;100.00
18014;BME280;9132;47.946;10.394;2024-03-25T08:14:03;93294.81;;;4.47;100.00
18014;BME280;9132;47.946;10.394;2024-03-25T08:16:29;93294.75;;;4.55;100.00
18014;BME280;9132;47.946;10.394;2024-03-25T08:18:54;93298.91;;;4.64;100.00
18014;BME280;9132;47.946;10.394;2024-03-25T08:21:20;93297.66;;;4.75;100.00
18014;BME280;9132;47.946;10.394;2024-03-25T08:23:47;93295.13;;;4.81;100.00
18014;BME280;9132;47.946;10.394;2024-03-25T08:26:12;93291.63;;;4.89;100.00
18014;BME280;9132;47.946;10.394;2024-03-25T08:28:38;93286.50;;;4.96;100.00
18014;BME280;9132;47.946;10.394;2024-03-25T08:31:04;93284.03;;;5.09;100.00
18014;BME280;9132;47.946;10.394;2024-03-25T08:33:30;93290.34;;;5.15;99.91
18014;BME280;9132;47.946;10.394;2024-03-25T08:35:55;93281.50;;;5.16;98.90
18014;BME280;9132;47.946;10.394;2024-03-25T08:38:21;93273.13;;;5.20;99.54
18014;BME280;9132;47.946;10.394;2024-03-25T08:40:48;93267.16;;;5.26;98.92
18014;BME280;9132;47.946;10.394;2024-03-25T08:43:13;93272.00;;;5.29;100.00
18014;BME280;9132;47.946;10.394;2024-03-25T08:45:39;93278.16;;;5.37;97.48
18014;BME280;9132;47.946;10.394;2024-03-25T08:48:05;93271.63;;;5.47;84.83
18014;BME280;9132;47.946;10.394;2024-03-25T08:50:31;93260.25;;;5.55;78.01
18014;BME280;9132;47.946;10.394;2024-03-25T08:52:57;93257.69;;;5.62;79.19
18014;BME280;9132;47.946;10.394;2024-03-25T08:55:22;93264.81;;;5.68;72.28
18014;BME280;9132;47.946;10.394;2024-03-25T08:57:49;93265.31;;;5.78;74.33
18014;BME280;9132;47.946;10.394;2024-03-25T09:00:16;93264.19;;;5.87;68.94
18014;BME280;9132;47.946;10.394;2024-03-25T09:02:42;93255.63;;;5.93;71.16
18014;BME280;9132;47.946;10.394;2024-03-25T09:05:08;93267.13;;;5.99;71.14
18014;BME280;9132;47.946;10.394;2024-03-25T09:07:33;93257.13;;;6.02;71.84
18014;BME280;9132;47.946;10.394;2024-03-25T09:09:59;93243.28;;;6.09;74.41
18014;BME280;9132;47.946;10.394;2024-03-25T09:12:43;93237.66;;;6.12;69.13
18014;BME280;9132;47.946;10.394;2024-03-25T09:15:10;93230.19;;;6.09;65.30
18014;BME280;9132;47.946;10.394;2024-03-25T09:17:36;93228.59;;;6.14;65.59
18014;BME280;9132;47.946;10.394;2024-03-25T09:20:01;93230.47;;;6.20;62.13
18014;BME280;9132;47.946;10.394;2024-03-25T09:22:28;93232.75;;;6.30;61.69
18014;BME280;9132;47.946;10.394;2024-03-25T09:24:53;93228.81;;;6.41;64.85
18014;BME280;9132;47.946;10.394;2024-03-25T09:27:19;93224.81;;;6.45;64.51
18014;BME280;9132;47.946;10.394;2024-03-25T09:29:44;93225.47;;;6.54;67.95
18014;BME280;9132;47.946;10.394;2024-03-25T09:32:11;93225.09;;;6.57;66.97
18014;BME280;9132;47.946;10.394;2024-03-25T09:34:37;93223.13;;;6.65;68.39
18014;BME280;9132;47.946;10.394;2024-03-25T09:37:03;93217.88;;;6.65;72.30
18014;BME280;9132;47.946;10.394;2024-03-25T09:39:28;93215.69;;;6.69;70.31
18014;BME280;9132;47.946;10.394;2024-03-25T09:41:55;93214.28;;;6.73;68.40
18014;BME280;9132;47.946;10.394;2024-03-25T09:44:22;93211.91;;;6.78;72.12
18014;BME280;9132;47.946;10.394;2024-03-25T09:46:49;93213.69;;;6.78;68.75
18014;BME280;9132;47.946;10.394;2024-03-25T09:49:17;93198.31;;;6.68;68.98
18014;BME280;9132;47.946;10.394;2024-03-25T09:51:43;93199.72;;;6.64;72.94
18014;BME280;9132;47.946;10.394;2024-03-25T09:54:08;93203.19;;;6.71;69.24
18014;BME280;9132;47.946;10.394;2024-03-25T09:56:35;93197.44;;;6.54;67.21
18014;BME280;9132;47.946;10.394;2024-03-25T09:59:01;93198.81;;;6.43;68.61
18014;BME280;9132;47.946;10.394;2024-03-25T10:01:27;93203.84;;;6.45;71.54
18014;BME280;9132;47.946;10.394;2024-03-25T10:03:54;93193.00;;;6.55;67.93
18014;BME280;9132;47.946;10.394;2024-03-25T10:06:21;93195.94;;;6.73;70.30
18014;BME280;9132;47.946;10.394;2024-03-25T10:08:46;93186.69;;;6.77;67.49
18014;BME280;9132;47.946;10.394;2024-03-25T10:11:12;93181.47;;;6.84;70.32
18014;BME280;9132;47.946;10.394;2024-03-25T10:13:40;93179.84;;;6.83;65.85
18014;BME280;9132;47.946;10.394;2024-03-25T10:16:07;93171.56;;;6.79;65.84
18014;BME280;9132;47.946;10.394;2024-03-25T10:18:32;93164.34;;;6.81;65.94
18014;BME280;9132;47.946;10.394;2024-03-25T10:20:58;93164.16;;;6.89;67.19
18014;BME280;9132;47.946;10.394;2024-03-25T10:23:25;93165.44;;;7.00;66.13
18014;BME280;9132;47.946;10.394;2024-03-25T10:25:52;93166.44;;;7.06;65.50
18014;BME280;9132;47.946;10.394;2024-03-25T10:28:17;93153.94;;;7.08;67.58
18014;BME280;9132;47.946;10.394;2024-03-25T10:30:43;93161.63;;;7.09;65.73
18014;BME280;9132;47.946;10.394;2024-03-25T10:33:09;93153.72;;;7.03;64.81
18014;BME280;9132;47.946;10.394;2024-03-25T10:35:35;93147.88;;;7.07;65.26
18014;BME280;9132;47.946;10.394;2024-03-25T10:38:03;93149.97;;;7.25;68.93
18014;BME280;9132;47.946;10.394;2024-03-25T10:40:32;93143.34;;;7.42;67.24
18014;BME280;9132;47.946;10.394;2024-03-25T10:43:01;93135.69;;;7.48;64.90
18014;BME280;9132;47.946;10.394;2024-03-25T10:45:29;93130.22;;;7.42;64.48
18014;BME280;9132;47.946;10.394;2024-03-25T10:47:57;93129.63;;;7.47;66.68
18014;BME280;9132;47.946;10.394;2024-03-25T10:50:26;93107.22;;;7.45;63.56
18014;BME280;9132;47.946;10.394;2024-03-25T10:52:54;93114.47;;;7.49;65.00
18014;BME280;9132;47.946;10.394;2024-03-25T10:55:20;93107.41;;;7.56;63.27
18014;BME280;9132;47.946;10.394;2024-03-25T10:57:48;93108.44;;;7.75;62.05
18014;BME280;9132;47.946;10.394;2024-03-25T11:00:14;93099.72;;;7.88;62.88
18014;BME280;9132;47.946;10.394;2024-03-25T11:02:41;93094.88;;;8.11;62.53
18014;BME280;9132;47.946;10.394;2024-03-25T11:05:07;93090.41;;;8.19;59.21
18014;BME280;9132;47.946;10.394;2024-03-25T11:07:33;93080.31;;;8.16;60.70
18014;BME280;9132;47.946;10.394;2024-03-25T11:10:08;93080.69;;;8.26;60.17
18014;BME280;9132;47.946;10.394;2024-03-25T11:12:35;93079.88;;;8.32;58.42
18014;BME280;9132;47.946;10.394;2024-03-25T11:15:04;93072.59;;;8.34;57.59
18014;BME280;9132;47.946;10.394;2024-03-25T11:17:30;93068.13;;;8.48;56.80
18014;BME280;9132;47.946;10.394;2024-03-25T11:20:06;93071.31;;;8.63;57.24
18014;BME280;9132;47.946;10.394;2024-03-25T11:22:32;93058.34;;;8.68;55.83
18014;BME280;9132;47.946;10.394;2024-03-25T11:25:05;93051.84;;;8.77;56.62
18014;BME280;9132;47.946;10.394;2024-03-25T11:27:31;93045.13;;;8.81;54.52
18014;BME280;9132;47.946;10.394;2024-03-25T11:29:57;93042.28;;;8.90;58.81
18014;BME280;9132;47.946;10.394;2024-03-25T11:32:24;93039.75;;;9.08;64.81
18014;BME280;9132;47.946;10.394;2024-03-25T11:34:52;93049.91;;;9.29;63.77
18014;BME280;9132;47.946;10.394;2024-03-25T11:37:17;93038.28;;;9.44;56.18
18014;BME280;9132;47.946;10.394;2024-03-25T11:39:43;93038.06;;;9.45;53.58
18014;BME280;9132;47.946;10.394;2024-03-25T11:42:09;93031.13;;;9.51;54.21
18014;BME280;9132;47.946;10.394;2024-03-25T11:44:36;93033.13;;;9.56;57.48
18014;BME280;9132;47.946;10.394;2024-03-25T11:47:03;93026.25;;;9.55;53.34
18014;BME280;9132;47.946;10.394;2024-03-25T11:49:30;93021.63;;;9.50;52.75
18014;BME280;9132;47.946;10.394;2024-03-25T11:51:55;93012.72;;;9.51;54.49
18014;BME280;9132;47.946;10.394;2024-03-25T11:54:21;93019.00;;;9.50;57.63
18014;BME280;9132;47.946;10.394;2024-03-25T11:56:47;93019.50;;;9.65;55.82
18014;BME280;9132;47.946;10.394;2024-03-25T11:59:12;93008.47;;;9.50;52.68
18014;BME280;9132;47.946;10.394;2024-03-25T12:01:38;93005.97;;;9.55;51.52
18014;BME280;9132;47.946;10.394;2024-03-25T12:04:10;92997.44;;;9.60;54.43
18014;BME280;9132;47.946;10.394;2024-03-25T12:06:37;92991.25;;;9.72;57.60
18014;BME280;9132;47.946;10.394;2024-03-25T12:09:02;92976.66;;;9.95;58.06
18014;BME280;9132;47.946;10.394;2024-03-25T12:11:46;92974.31;;;10.24;56.42
18014;BME280;9132;47.946;10.394;2024-03-25T12:14:13;92964.06;;;10.34;54.08
18014;BME280;9132;47.946;10.394;2024-03-25T12:16:39;92959.75;;;10.21;51.84
18014;BME280;9132;47.946;10.394;2024-03-25T12:19:05;92957.19;;;10.14;51.34
18014;BME280;9132;47.946;10.394;2024-03-25T12:21:31;92948.34;;;10.09;53.72
18014;BME280;9132;47.946;10.394;2024-03-25T12:23:59;92948.94;;;10.29;55.00
18014;BME280;9132;47.946;10.394;2024-03-25T12:26:25;92939.84;;;10.43;53.22
18014;BME280;9132;47.946;10.394;2024-03-25T12:28:50;92933.59;;;10.56;54.24
18014;BME280;9132;47.946;10.394;2024-03-25T12:31:17;92929.97;;;10.69;52.82
18014;BME280;9132;47.946;10.394;2024-03-25T12:33:42;92922.81;;;10.88;56.42
18014;BME280;9132;47.946;10.394;2024-03-25T12:36:08;92920.66;;;11.08;51.15
18014;BME280;9132;47.946;10.394;2024-03-25T12:38:35;92914.13;;;11.11;50.86
18014;BME280;9132;47.946;10.394;2024-03-25T12:41:06;92903.44;;;11.06;50.37
18014;BME280;9132;47.946;10.394;2024-03-25T12:43:32;92910.94;;;11.21;54.16
18014;BME280;9132;47.946;10.394;2024-03-25T12:45:59;92904.16;;;11.36;50.46
18014;BME280;9132;47.946;10.394;2024-03-25T12:48:24;92905.56;;;11.51;50.06
18014;BME280;9132;47.946;10.394;2024-03-25T12:50:50;92891.19;;;11.58;51.98
18014;BME280;9132;47.946;10.394;2024-03-25T12:53:18;92891.41;;;11.69;50.91
18014;BME280;9132;47.946;10.394;2024-03-25T12:55:44;92884.06;;;11.82;51.47
18014;BME280;9132;47.946;10.394;2024-03-25T12:58:11;92874.97;;;12.02;49.31